sensor_id;sensor_type;location;lat;lon;timestamp;temperature;humidity
26537;DHT22;14204;51.262;5.488;2023-02-12T00:01:10;9.80;99.90
26537;DHT22;14204;51.262;5.488;2023-02-12T00:03:37;9.70;99.90
26537;DHT22;14204;51.262;5.488;2023-02-12T00:06:03;9.70;99.90
26537;DHT22;14204;51.262;5.488;2023-02-12T00:08:29;9.70;99.90
26537;DHT22;14204;51.262;5.488;2023-02-12T00:10:55;9.70;99.90
26537;DHT22;14204;51.262;5.488;2023-02-12T00:13:21;9.70;99.90
26537;DHT22;14204;51.262;5.488;2023-02-12T00:15:48;9.70;99.90
26537;DHT22;14204;51.262;5.488;2023-02-12T00:18:14;9.70;99.90
26537;DHT22;14204;51.262;5.488;2023-02-12T00:20:39;9.80;99.90
26537;DHT22;14204;51.262;5.488;2023-02-12T00:23:05;9.70;99.90
26537;DHT22;14204;51.262;5.488;2023-02-12T00:25:31;9.60;99.90
26537;DHT22;14204;51.262;5.488;2023-02-12T00:27:58;9.60;99.90
26537;DHT22;14204;51.262;5.488;2023-02-12T00:30:23;9.70;99.90
26537;DHT22;14204;51.262;5.488;2023-02-12T00:32:49;9.70;99.90
26537;DHT22;14204;51.262;5.488;2023-02-12T00:35:15;9.60;99.90
26537;DHT22;14204;51.262;5.488;2023-02-12T00:37:40;9.60;99.90
26537;DHT22;14204;51.262;5.488;2023-02-12T00:40:06;9.60;99.90
26537;DHT22;14204;51.262;5.488;2023-02-12T00:42:32;9.60;99.90
26537;DHT22;14204;51.262;5.488;2023-02-12T00:44:58;9.60;99.90
26537;DHT22;14204;51.262;5.488;2023-02-12T00:47:23;9.60;99.90
26537;DHT22;14204;51.262;5.488;2023-02-12T00:49:49;9.70;99.90
26537;DHT22;14204;51.262;5.488;2023-02-12T00:52:15;9.70;99.90
26537;DHT22;14204;51.262;5.488;2023-02-12T00:54:40;9.70;99.90
26537;DHT22;14204;51.262;5.488;2023-02-12T00:57:06;9.70;99.90
26537;DHT22;14204;51.262;5.488;2023-02-12T00:59:31;9.60;99.90
26537;DHT22;14204;51.262;5.488;2023-02-12T01:02:00;9.60;99.90
26537;DHT22;14204;51.262;5.488;2023-02-12T01:04:26;9.60;99.90
26537;DHT22;14204;51.262;5.488;2023-02-12T01:06:51;9.60;99.90
26537;DHT22;14204;51.262;5.488;2023-02-12T01:09:17;9.60;99.90
26537;DHT22;14204;51.262;5.488;2023-02-12T01:11:42;9.60;99.90
26537;DHT22;14204;51.262;5.488;2023-02-12T01:14:08;9.50;99.90
26537;DHT22;14204;51.262;5.488;2023-02-12T01:16:35;9.40;99.90
26537;DHT22;14204;51.262;5.488;2023-02-12T01:19:01;9.40;99.90
26537;DHT22;14204;51.262;5.488;2023-02-12T01:21:29;9.50;99.90
26537;DHT22;14204;51.262;5.488;2023-02-12T01:23:56;9.50;99.90
26537;DHT22;14204;51.262;5.488;2023-02-12T01:26:22;9.60;99.90
26537;DHT22;14204;51.262;5.488;2023-02-12T01:28:52;9.60;99.90
26537;DHT22;14204;51.262;5.488;2023-02-12T01:31:20;9.60;99.90
26537;DHT22;14204;51.262;5.488;2023-02-12T01:33:50;9.60;99.90
26537;DHT22;14204;51.262;5.488;2023-02-12T01:36:16;9.60;99.90
26537;DHT22;14204;51.262;5.488;2023-02-12T01:38:42;9.60;99.90
26537;DHT22;14204;51.262;5.488;2023-02-12T01:41:20;9.60;99.90
26537;DHT22;14204;51.262;5.488;2023-02-12T01:44:11;9.60;99.90
26537;DHT22;14204;51.262;5.488;2023-02-12T01:46:38;9.60;99.90
26537;DHT22;14204;51.262;5.488;2023-02-12T01:49:11;9.60;99.90
26537;DHT22;14204;51.262;5.488;2023-02-12T01:51:38;9.60;99.90
26537;DHT22;14204;51.262;5.488;2023-02-12T01:54:06;9.60;99.90
26537;DHT22;14204;51.262;5.488;2023-02-12T01:56:33;9.60;99.90
26537;DHT22;14204;51.262;5.488;2023-02-12T01:58:59;9.60;99.90
26537;DHT22;14204;51.262;5.488;2023-02-12T02:01:28;9.60;99.90
26537;DHT22;14204;51.262;5.488;2023-02-12T02:03:58;9.60;99.90
26537;DHT22;14204;51.262;5.488;2023-02-12T02:06:34;9.60;99.90
26537;DHT22;14204;51.262;5.488;2023-02-12T02:09:01;9.40;99.90
26537;DHT22;14204;51.262;5.488;2023-02-12T02:11:26;9.30;99.90
26537;DHT22;14204;51.262;5.488;2023-02-12T02:14:10;9.30;99.90
26537;DHT22;14204;51.262;5.488;2023-02-12T02:22:28;9.40;99.90
26537;DHT22;14204;51.262;5.488;2023-02-12T02:28:02;9.50;99.90
26537;DHT22;14204;51.262;5.488;2023-02-12T02:30:42;9.40;99.90
26537;DHT22;14204;51.262;5.488;2023-02-12T02:33:36;9.50;99.90
26537;DHT22;14204;51.262;5.488;2023-02-12T02:36:14;9.50;99.90
26537;DHT22;14204;51.262;5.488;2023-02-12T02:38:50;9.50;99.90
26537;DHT22;14204;51.262;5.488;2023-02-12T02:43:49;9.50;99.90
26537;DHT22;14204;51.262;5.488;2023-02-12T02:46:30;9.50;99.90
26537;DHT22;14204;51.262;5.488;2023-02-12T02:49:05;9.50;99.90
26537;DHT22;14204;51.262;5.488;2023-02-12T02:51:35;9.40;99.90
26537;DHT22;14204;51.262;5.488;2023-02-12T02:54:31;9.40;99.90
26537;DHT22;14204;51.262;5.488;2023-02-12T02:57:15;9.40;99.90
26537;DHT22;14204;51.262;5.488;2023-02-12T02:59:48;9.40;99.90
26537;DHT22;14204;51.262;5.488;2023-02-12T03:02:32;9.40;99.90
26537;DHT22;14204;51.262;5.488;2023-02-12T03:07:32;9.40;99.90
26537;DHT22;14204;51.262;5.488;2023-02-12T03:15:23;9.40;99.90
26537;DHT22;14204;51.262;5.488;2023-02-12T03:17:50;9.40;99.90
26537;DHT22;14204;51.262;5.488;2023-02-12T03:20:44;9.40;99.90
26537;DHT22;14204;51.262;5.488;2023-02-12T03:23:24;9.20;99.90
26537;DHT22;14204;51.262;5.488;2023-02-12T03:26:00;9.30;99.90
26537;DHT22;14204;51.262;5.488;2023-02-12T03:28:31;9.40;99.90
26537;DHT22;14204;51.262;5.488;2023-02-12T03:31:08;9.40;99.90
26537;DHT22;14204;51.262;5.488;2023-02-12T03:36:35;9.30;99.90
26537;DHT22;14204;51.262;5.488;2023-02-12T03:39:25;9.40;99.90
26537;DHT22;14204;51.262;5.488;2023-02-12T03:42:00;9.40;99.90
26537;DHT22;14204;51.262;5.488;2023-02-12T03:47:59;9.20;99.90
26537;DHT22;14204;51.262;5.488;2023-02-12T03:50:35;9.20;99.90
26537;DHT22;14204;51.262;5.488;2023-02-12T03:53:04;9.20;99.90
26537;DHT22;14204;51.262;5.488;2023-02-12T03:55:31;9.30;99.90
26537;DHT22;14204;51.262;5.488;2023-02-12T03:58:01;9.30;99.90
26537;DHT22;14204;51.262;5.488;2023-02-12T04:00:27;9.40;99.90
26537;DHT22;14204;51.262;5.488;2023-02-12T04:02:54;9.40;99.90
26537;DHT22;14204;51.262;5.488;2023-02-12T04:05:25;9.40;99.90
26537;DHT22;14204;51.262;5.488;2023-02-12T04:07:52;9.30;99.90
26537;DHT22;14204;51.262;5.488;2023-02-12T04:10:24;9.30;99.90
26537;DHT22;14204;51.262;5.488;2023-02-12T04:12:56;9.30;99.90
26537;DHT22;14204;51.262;5.488;2023-02-12T04:18:55;9.30;99.90
26537;DHT22;14204;51.262;5.488;2023-02-12T04:21:45;9.30;99.90
26537;DHT22;14204;51.262;5.488;2023-02-12T04:27:19;9.30;99.90
26537;DHT22;14204;51.262;5.488;2023-02-12T04:29:54;9.20;99.90
26537;DHT22;14204;51.262;5.488;2023-02-12T04:32:37;9.20;99.90
26537;DHT22;14204;51.262;5.488;2023-02-12T04:35:36;9.20;99.90
26537;DHT22;14204;51.262;5.488;2023-02-12T04:38:32;9.20;99.90
26537;DHT22;14204;51.262;5.488;2023-02-12T04:40:59;9.20;99.90
26537;DHT22;14204;51.262;5.488;2023-02-12T04:43:29;9.30;99.90
26537;DHT22;14204;51.262;5.488;2023-02-12T04:45:55;9.30;99.90
26537;DHT22;14204;51.262;5.488;2023-02-12T04:48:21;9.20;99.90
26537;DHT22;14204;51.262;5.488;2023-02-12T04:50:46;9.30;99.90
26537;DHT22;14204;51.262;5.488;2023-02-12T04:53:12;9.30;99.90
26537;DHT22;14204;51.262;5.488;2023-02-12T04:55:38;9.30;99.90
26537;DHT22;14204;51.262;5.488;2023-02-12T04:58:04;9.20;99.90
26537;DHT22;14204;51.262;5.488;2023-02-12T05:00:30;9.30;99.90
26537;DHT22;14204;51.262;5.488;2023-02-12T05:02:55;9.30;99.90
26537;DHT22;14204;51.262;5.488;2023-02-12T05:05:21;9.30;99.90
26537;DHT22;14204;51.262;5.488;2023-02-12T05:07:47;9.20;99.90
26537;DHT22;14204;51.262;5.488;2023-02-12T05:10:13;9.30;99.90
26537;DHT22;14204;51.262;5.488;2023-02-12T05:12:38;9.30;99.90
26537;DHT22;14204;51.262;5.488;2023-02-12T05:15:04;9.30;99.90
26537;DHT22;14204;51.262;5.488;2023-02-12T05:17:30;9.30;99.90
26537;DHT22;14204;51.262;5.488;2023-02-12T05:19:55;9.30;99.90
26537;DHT22;14204;51.262;5.488;2023-02-12T05:22:21;9.30;99.90
26537;DHT22;14204;51.262;5.488;2023-02-12T05:24:46;9.30;99.90
26537;DHT22;14204;51.262;5.488;2023-02-12T05:27:12;9.30;99.90
26537;DHT22;14204;51.262;5.488;2023-02-12T05:29:38;9.30;99.90
26537;DHT22;14204;51.262;5.488;2023-02-12T05:32:04;9.30;99.90
26537;DHT22;14204;51.262;5.488;2023-02-12T05:34:31;9.30;99.90
26537;DHT22;14204;51.262;5.488;2023-02-12T05:36:56;9.30;99.90
26537;DHT22;14204;51.262;5.488;2023-02-12T05:39:22;9.30;99.90
26537;DHT22;14204;51.262;5.488;2023-02-12T05:41:48;9.20;99.90
26537;DHT22;14204;51.262;5.488;2023-02-12T05:44:13;9.20;99.90
26537;DHT22;14204;51.262;5.488;2023-02-12T05:46:40;9.30;99.90
26537;DHT22;14204;51.262;5.488;2023-02-12T05:49:06;9.20;99.90
26537;DHT22;14204;51.262;5.488;2023-02-12T05:51:31;9.20;99.90
26537;DHT22;14204;51.262;5.488;2023-02-12T05:54:00;9.20;99.90
26537;DHT22;14204;51.262;5.488;2023-02-12T05:56:31;9.30;99.90
26537;DHT22;14204;51.262;5.488;2023-02-12T05:59:06;9.30;99.90
26537;DHT22;14204;51.262;5.488;2023-02-12T06:01:40;9.30;99.90
26537;DHT22;14204;51.262;5.488;2023-02-12T06:04:09;9.20;99.90
26537;DHT22;14204;51.262;5.488;2023-02-12T06:06:37;9.20;99.90
26537;DHT22;14204;51.262;5.488;2023-02-12T06:09:06;9.20;99.90
26537;DHT22;14204;51.262;5.488;2023-02-12T06:11:32;9.30;99.90
26537;DHT22;14204;51.262;5.488;2023-02-12T06:14:01;9.30;99.90
26537;DHT22;14204;51.262;5.488;2023-02-12T06:16:27;9.30;99.90
26537;DHT22;14204;51.262;5.488;2023-02-12T06:18:55;9.30;99.90
26537;DHT22;14204;51.262;5.488;2023-02-12T06:21:22;9.30;99.90
26537;DHT22;14204;51.262;5.488;2023-02-12T06:23:48;9.30;99.90
26537;DHT22;14204;51.262;5.488;2023-02-12T06:26:14;9.30;99.90
26537;DHT22;14204;51.262;5.488;2023-02-12T06:28:40;9.30;99.90
26537;DHT22;14204;51.262;5.488;2023-02-12T06:31:21;9.30;99.90
26537;DHT22;14204;51.262;5.488;2023-02-12T06:33:47;9.30;99.90
26537;DHT22;14204;51.262;5.488;2023-02-12T06:36:13;9.30;99.90
26537;DHT22;14204;51.262;5.488;2023-02-12T06:38:39;9.20;99.90
26537;DHT22;14204;51.262;5.488;2023-02-12T06:41:04;9.20;99.90
26537;DHT22;14204;51.262;5.488;2023-02-12T06:43:30;9.20;99.90
26537;DHT22;14204;51.262;5.488;2023-02-12T06:45:58;9.20;99.90
26537;DHT22;14204;51.262;5.488;2023-02-12T06:48:24;9.10;99.90
26537;DHT22;14204;51.262;5.488;2023-02-12T06:50:50;9.20;99.90
26537;DHT22;14204;51.262;5.488;2023-02-12T06:53:15;9.10;99.90
26537;DHT22;14204;51.262;5.488;2023-02-12T06:55:41;9.20;99.90
26537;DHT22;14204;51.262;5.488;2023-02-12T06:58:06;9.20;99.90
26537;DHT22;14204;51.262;5.488;2023-02-12T07:00:32;9.10;99.90
26537;DHT22;14204;51.262;5.488;2023-02-12T07:02:57;9.20;99.90
26537;DHT22;14204;51.262;5.488;2023-02-12T07:05:23;9.10;99.90
26537;DHT22;14204;51.262;5.488;2023-02-12T07:07:49;9.10;99.90
26537;DHT22;14204;51.262;5.488;2023-02-12T07:10:16;9.10;99.90
26537;DHT22;14204;51.262;5.488;2023-02-12T07:12:41;9.20;99.90
26537;DHT22;14204;51.262;5.488;2023-02-12T07:15:07;9.20;99.90
26537;DHT22;14204;51.262;5.488;2023-02-12T07:17:33;9.20;99.90
26537;DHT22;14204;51.262;5.488;2023-02-12T07:19:59;9.20;99.90
26537;DHT22;14204;51.262;5.488;2023-02-12T07:22:24;9.20;99.90
26537;DHT22;14204;51.262;5.488;2023-02-12T07:24:50;9.10;99.90
26537;DHT22;14204;51.262;5.488;2023-02-12T07:27:16;9.10;99.90
26537;DHT22;14204;51.262;5.488;2023-02-12T07:29:42;9.10;99.90
26537;DHT22;14204;51.262;5.488;2023-02-12T07:32:07;9.20;99.90
26537;DHT22;14204;51.262;5.488;2023-02-12T07:34:33;9.20;99.90
26537;DHT22;14204;51.262;5.488;2023-02-12T07:36:58;9.20;99.90
26537;DHT22;14204;51.262;5.488;2023-02-12T07:39:24;9.20;99.90
26537;DHT22;14204;51.262;5.488;2023-02-12T07:41:49;9.30;99.90
26537;DHT22;14204;51.262;5.488;2023-02-12T07:44:15;9.20;99.90
26537;DHT22;14204;51.262;5.488;2023-02-12T07:46:45;9.20;99.90
26537;DHT22;14204;51.262;5.488;2023-02-12T07:49:13;9.20;99.90
26537;DHT22;14204;51.262;5.488;2023-02-12T07:51:39;9.20;99.90
26537;DHT22;14204;51.262;5.488;2023-02-12T07:54:05;9.20;99.90
26537;DHT22;14204;51.262;5.488;2023-02-12T07:56:32;9.20;99.90
26537;DHT22;14204;51.262;5.488;2023-02-12T07:59:02;9.20;99.90
26537;DHT22;14204;51.262;5.488;2023-02-12T08:01:29;9.30;99.90
26537;DHT22;14204;51.262;5.488;2023-02-12T08:04:00;9.30;99.90
26537;DHT22;14204;51.262;5.488;2023-02-12T08:06:27;9.40;99.90
26537;DHT22;14204;51.262;5.488;2023-02-12T08:08:56;9.40;99.90
26537;DHT22;14204;51.262;5.488;2023-02-12T08:11:21;9.40;99.90
26537;DHT22;14204;51.262;5.488;2023-02-12T08:13:48;9.50;99.90
26537;DHT22;14204;51.262;5.488;2023-02-12T08:16:16;9.50;99.90
26537;DHT22;14204;51.262;5.488;2023-02-12T08:18:43;9.50;99.90
26537;DHT22;14204;51.262;5.488;2023-02-12T08:21:11;9.50;99.90
26537;DHT22;14204;51.262;5.488;2023-02-12T08:23:37;9.50;99.90
26537;DHT22;14204;51.262;5.488;2023-02-12T08:26:37;9.50;99.90
26537;DHT22;14204;51.262;5.488;2023-02-12T08:29:06;9.40;99.90
26537;DHT22;14204;51.262;5.488;2023-02-12T08:31:34;9.30;99.90
26537;DHT22;14204;51.262;5.488;2023-02-12T08:34:01;9.30;99.90
26537;DHT22;14204;51.262;5.488;2023-02-12T08:36:29;9.40;99.90
26537;DHT22;14204;51.262;5.488;2023-02-12T08:38:58;9.40;99.90
26537;DHT22;14204;51.262;5.488;2023-02-12T08:41:26;9.40;99.90
26537;DHT22;14204;51.262;5.488;2023-02-12T08:43:53;9.40;99.90
26537;DHT22;14204;51.262;5.488;2023-02-12T08:46:22;9.40;99.90
26537;DHT22;14204;51.262;5.488;2023-02-12T08:48:50;9.50;99.90
26537;DHT22;14204;51.262;5.488;2023-02-12T08:51:18;9.60;99.90
26537;DHT22;14204;51.262;5.488;2023-02-12T08:53:45;9.60;99.90
26537;DHT22;14204;51.262;5.488;2023-02-12T08:56:14;9.50;99.90
26537;DHT22;14204;51.262;5.488;2023-02-12T08:58:42;9.40;99.90
26537;DHT22;14204;51.262;5.488;2023-02-12T09:01:19;9.40;99.90
26537;DHT22;14204;51.262;5.488;2023-02-12T09:03:45;9.40;99.90
26537;DHT22;14204;51.262;5.488;2023-02-12T09:06:12;9.40;99.90
26537;DHT22;14204;51.262;5.488;2023-02-12T09:08:38;9.60;99.90
26537;DHT22;14204;51.262;5.488;2023-02-12T09:11:12;9.60;99.90
26537;DHT22;14204;51.262;5.488;2023-02-12T09:13:39;9.60;99.90
26537;DHT22;14204;51.262;5.488;2023-02-12T09:16:05;9.70;99.90
26537;DHT22;14204;51.262;5.488;2023-02-12T09:18:31;9.70;99.90
26537;DHT22;14204;51.262;5.488;2023-02-12T09:21:03;9.80;99.90
26537;DHT22;14204;51.262;5.488;2023-02-12T09:23:29;9.80;99.90
26537;DHT22;14204;51.262;5.488;2023-02-12T09:25:54;9.80;99.90
26537;DHT22;14204;51.262;5.488;2023-02-12T09:28:20;9.90;99.90
26537;DHT22;14204;51.262;5.488;2023-02-12T09:30:45;9.90;99.90
26537;DHT22;14204;51.262;5.488;2023-02-12T09:33:11;9.90;99.90
26537;DHT22;14204;51.262;5.488;2023-02-12T09:35:38;9.90;99.90
26537;DHT22;14204;51.262;5.488;2023-02-12T09:38:04;9.90;99.90
26537;DHT22;14204;51.262;5.488;2023-02-12T09:40:43;9.90;99.90
26537;DHT22;14204;51.262;5.488;2023-02-12T09:51:22;10.00;99.90
26537;DHT22;14204;51.262;5.488;2023-02-12T09:54:05;10.10;99.90
26537;DHT22;14204;51.262;5.488;2023-02-12T09:56:33;10.00;99.90
26537;DHT22;14204;51.262;5.488;2023-02-12T09:59:00;10.10;99.90
26537;DHT22;14204;51.262;5.488;2023-02-12T10:01:28;10.10;99.90
26537;DHT22;14204;51.262;5.488;2023-02-12T10:03:54;10.20;99.90
26537;DHT22;14204;51.262;5.488;2023-02-12T10:06:24;10.20;99.90
26537;DHT22;14204;51.262;5.488;2023-02-12T10:09:00;10.10;99.90
26537;DHT22;14204;51.262;5.488;2023-02-12T10:11:48;10.20;99.90
26537;DHT22;14204;51.262;5.488;2023-02-12T10:14:45;10.10;99.90
26537;DHT22;14204;51.262;5.488;2023-02-12T10:17:39;10.20;99.90
26537;DHT22;14204;51.262;5.488;2023-02-12T10:23:13;10.30;99.90
26537;DHT22;14204;51.262;5.488;2023-02-12T10:25:53;10.40;99.90
26537;DHT22;14204;51.262;5.488;2023-02-12T10:28:35;10.40;99.90
26537;DHT22;14204;51.262;5.488;2023-02-12T10:31:26;10.40;99.90
26537;DHT22;14204;51.262;5.488;2023-02-12T10:33:53;10.50;99.90
26537;DHT22;14204;51.262;5.488;2023-02-12T10:39:17;10.50;99.90
26537;DHT22;14204;51.262;5.488;2023-02-12T10:41:55;10.60;99.90
26537;DHT22;14204;51.262;5.488;2023-02-12T10:44:23;10.50;99.90
26537;DHT22;14204;51.262;5.488;2023-02-12T10:46:49;10.50;99.90
26537;DHT22;14204;51.262;5.488;2023-02-12T10:49:17;10.40;99.90
26537;DHT22;14204;51.262;5.488;2023-02-12T10:51:55;10.40;99.90
26537;DHT22;14204;51.262;5.488;2023-02-12T10:57:10;10.60;99.90
26537;DHT22;14204;51.262;5.488;2023-02-12T10:59:38;10.70;99.90
26537;DHT22;14204;51.262;5.488;2023-02-12T11:02:19;10.70;99.90
26537;DHT22;14204;51.262;5.488;2023-02-12T11:04:45;10.70;99.90
26537;DHT22;14204;51.262;5.488;2023-02-12T11:07:10;10.70;99.90
26537;DHT22;14204;51.262;5.488;2023-02-12T11:09:41;10.80;99.90
26537;DHT22;14204;51.262;5.488;2023-02-12T11:14:49;10.80;99.90
26537;DHT22;14204;51.262;5.488;2023-02-12T11:17:23;10.90;99.90
26537;DHT22;14204;51.262;5.488;2023-02-12T11:20:23;10.80;99.90
26537;DHT22;14204;51.262;5.488;2023-02-12T11:22:55;10.80;99.90
26537;DHT22;14204;51.262;5.488;2023-02-12T11:25:23;10.90;99.90
26537;DHT22;14204;51.262;5.488;2023-02-12T11:30:35;10.80;99.90
26537;DHT22;14204;51.262;5.488;2023-02-12T11:33:24;10.80;99.90
26537;DHT22;14204;51.262;5.488;2023-02-12T11:36:03;10.80;99.90
26537;DHT22;14204;51.262;5.488;2023-02-12T11:38:33;10.80;99.90
26537;DHT22;14204;51.262;5.488;2023-02-12T11:41:06;10.80;99.90
26537;DHT22;14204;51.262;5.488;2023-02-12T11:43:33;10.90;99.90
26537;DHT22;14204;51.262;5.488;2023-02-12T11:46:02;11.00;99.90
26537;DHT22;14204;51.262;5.488;2023-02-12T11:48:32;11.00;99.90
26537;DHT22;14204;51.262;5.488;2023-02-12T11:51:02;11.00;99.90
26537;DHT22;14204;51.262;5.488;2023-02-12T11:53:41;11.00;99.90
26537;DHT22;14204;51.262;5.488;2023-02-12T11:56:10;10.90;99.90
26537;DHT22;14204;51.262;5.488;2023-02-12T11:58:36;11.00;99.90
26537;DHT22;14204;51.262;5.488;2023-02-12T12:04:18;11.00;99.90
26537;DHT22;14204;51.262;5.488;2023-02-12T12:06:45;11.10;99.90
26537;DHT22;14204;51.262;5.488;2023-02-12T12:09:34;11.10;99.90
26537;DHT22;14204;51.262;5.488;2023-02-12T12:14:46;11.10;99.90
26537;DHT22;14204;51.262;5.488;2023-02-12T12:17:50;11.20;99.90
26537;DHT22;14204;51.262;5.488;2023-02-12T12:20:50;11.20;99.90
26537;DHT22;14204;51.262;5.488;2023-02-12T12:23:37;11.30;99.90
26537;DHT22;14204;51.262;5.488;2023-02-12T12:26:12;11.30;99.90
26537;DHT22;14204;51.262;5.488;2023-02-12T12:31:38;11.40;99.90
26537;DHT22;14204;51.262;5.488;2023-02-12T12:48:27;11.40;99.90
26537;DHT22;14204;51.262;5.488;2023-02-12T12:50:43;11.30;99.90
26537;DHT22;14204;51.262;5.488;2023-02-12T13:04:46;11.20;99.90
26537;DHT22;14204;51.262;5.488;2023-02-12T13:09:59;11.20;99.90
26537;DHT22;14204;51.262;5.488;2023-02-12T13:15:35;11.30;99.90
26537;DHT22;14204;51.262;5.488;2023-02-12T13:20:56;11.20;99.90
26537;DHT22;14204;51.262;5.488;2023-02-12T13:23:28;11.10;99.90
26537;DHT22;14204;51.262;5.488;2023-02-12T13:28:36;11.30;99.90
26537;DHT22;14204;51.262;5.488;2023-02-12T13:31:06;11.20;99.90
26537;DHT22;14204;51.262;5.488;2023-02-12T13:33:58;11.40;99.90
26537;DHT22;14204;51.262;5.488;2023-02-12T13:36:24;11.40;99.90
26537;DHT22;14204;51.262;5.488;2023-02-12T13:38:57;11.40;99.90
26537;DHT22;14204;51.262;5.488;2023-02-12T13:41:25;11.30;99.90
26537;DHT22;14204;51.262;5.488;2023-02-12T13:44:00;11.20;99.90
26537;DHT22;14204;51.262;5.488;2023-02-12T13:47:03;11.30;99.90
26537;DHT22;14204;51.262;5.488;2023-02-12T13:49:47;11.40;99.90
26537;DHT22;14204;51.262;5.488;2023-02-12T13:52:35;11.40;99.90
26537;DHT22;14204;51.262;5.488;2023-02-12T13:55:33;11.40;99.90
26537;DHT22;14204;51.262;5.488;2023-02-12T14:03:26;11.30;99.90
26537;DHT22;14204;51.262;5.488;2023-02-12T14:08:40;11.30;99.90
26537;DHT22;14204;51.262;5.488;2023-02-12T14:11:18;11.30;99.90
26537;DHT22;14204;51.262;5.488;2023-02-12T14:14:02;11.30;99.90
26537;DHT22;14204;51.262;5.488;2023-02-12T14:21:59;11.20;99.90
26537;DHT22;14204;51.262;5.488;2023-02-12T14:30:01;11.20;99.90
26537;DHT22;14204;51.262;5.488;2023-02-12T14:37:55;11.30;99.90
26537;DHT22;14204;51.262;5.488;2023-02-12T14:45:57;11.20;99.90
26537;DHT22;14204;51.262;5.488;2023-02-12T14:48:51;11.10;99.90
26537;DHT22;14204;51.262;5.488;2023-02-12T14:51:45;11.00;99.90
26537;DHT22;14204;51.262;5.488;2023-02-12T14:54:45;11.10;99.90
26537;DHT22;14204;51.262;5.488;2023-02-12T14:59:43;11.00;99.90
26537;DHT22;14204;51.262;5.488;2023-02-12T15:02:31;11.10;99.90
26537;DHT22;14204;51.262;5.488;2023-02-12T15:05:12;11.10;99.90
26537;DHT22;14204;51.262;5.488;2023-02-12T15:07:43;11.10;99.90
26537;DHT22;14204;51.262;5.488;2023-02-12T15:10:16;11.10;99.90
26537;DHT22;14204;51.262;5.488;2023-02-12T15:15:38;11.00;99.90
26537;DHT22;14204;51.262;5.488;2023-02-12T15:18:23;11.00;99.90
26537;DHT22;14204;51.262;5.488;2023-02-12T15:21:13;11.00;99.90
26537;DHT22;14204;51.262;5.488;2023-02-12T15:23:43;11.00;99.90
26537;DHT22;14204;51.262;5.488;2023-02-12T15:26:18;11.10;99.90
26537;DHT22;14204;51.262;5.488;2023-02-12T15:28:51;11.10;99.90
26537;DHT22;14204;51.262;5.488;2023-02-12T15:31:20;11.20;99.90
26537;DHT22;14204;51.262;5.488;2023-02-12T15:33:49;11.20;99.90
26537;DHT22;14204;51.262;5.488;2023-02-12T15:36:19;11.20;99.90
26537;DHT22;14204;51.262;5.488;2023-02-12T15:38:48;11.20;99.90
26537;DHT22;14204;51.262;5.488;2023-02-12T15:41:35;11.20;99.90
26537;DHT22;14204;51.262;5.488;2023-02-12T15:44:22;11.10;99.90
26537;DHT22;14204;51.262;5.488;2023-02-12T15:49:23;11.10;99.90
26537;DHT22;14204;51.262;5.488;2023-02-12T15:51:50;11.10;99.90
26537;DHT22;14204;51.262;5.488;2023-02-12T15:54:18;11.10;99.90
26537;DHT22;14204;51.262;5.488;2023-02-12T15:56:44;11.10;99.90
26537;DHT22;14204;51.262;5.488;2023-02-12T15:59:19;11.10;99.90
26537;DHT22;14204;51.262;5.488;2023-02-12T16:02:00;11.00;99.90
26537;DHT22;14204;51.262;5.488;2023-02-12T16:04:30;11.00;99.90
26537;DHT22;14204;51.262;5.488;2023-02-12T16:06:57;10.90;99.90
26537;DHT22;14204;51.262;5.488;2023-02-12T16:09:31;10.90;99.90
26537;DHT22;14204;51.262;5.488;2023-02-12T16:12:01;10.90;99.90
26537;DHT22;14204;51.262;5.488;2023-02-12T16:14:39;11.00;99.90
26537;DHT22;14204;51.262;5.488;2023-02-12T16:17:37;11.10;99.90
26537;DHT22;14204;51.262;5.488;2023-02-12T16:22:47;11.00;99.90
26537;DHT22;14204;51.262;5.488;2023-02-12T16:25:25;11.00;99.90
26537;DHT22;14204;51.262;5.488;2023-02-12T16:28:11;11.00;99.90
26537;DHT22;14204;51.262;5.488;2023-02-12T16:30:40;11.00;99.90
26537;DHT22;14204;51.262;5.488;2023-02-12T16:43:46;11.00;99.90
26537;DHT22;14204;51.262;5.488;2023-02-12T16:46:13;11.00;99.90
26537;DHT22;14204;51.262;5.488;2023-02-12T16:48:49;11.00;99.90
26537;DHT22;14204;51.262;5.488;2023-02-12T16:51:32;11.00;99.90
26537;DHT22;14204;51.262;5.488;2023-02-12T16:54:02;11.00;99.90
26537;DHT22;14204;51.262;5.488;2023-02-12T16:56:30;11.10;99.90
26537;DHT22;14204;51.262;5.488;2023-02-12T16:58:59;11.00;99.90
26537;DHT22;14204;51.262;5.488;2023-02-12T17:01:28;11.00;99.90
26537;DHT22;14204;51.262;5.488;2023-02-12T17:03:54;11.00;99.90
26537;DHT22;14204;51.262;5.488;2023-02-12T17:06:24;11.00;99.90
26537;DHT22;14204;51.262;5.488;2023-02-12T17:08:50;11.00;99.90
26537;DHT22;14204;51.262;5.488;2023-02-12T17:11:16;11.00;99.90
26537;DHT22;14204;51.262;5.488;2023-02-12T17:13:43;11.00;99.90
26537;DHT22;14204;51.262;5.488;2023-02-12T17:16:09;10.90;99.90
26537;DHT22;14204;51.262;5.488;2023-02-12T17:18:35;10.90;99.90
26537;DHT22;14204;51.262;5.488;2023-02-12T17:21:06;10.90;99.90
26537;DHT22;14204;51.262;5.488;2023-02-12T17:23:33;10.80;99.90
26537;DHT22;14204;51.262;5.488;2023-02-12T17:25:59;10.90;99.90
26537;DHT22;14204;51.262;5.488;2023-02-12T17:28:25;10.90;99.90
26537;DHT22;14204;51.262;5.488;2023-02-12T17:30:51;10.90;99.90
26537;DHT22;14204;51.262;5.488;2023-02-12T17:33:18;10.80;99.90
26537;DHT22;14204;51.262;5.488;2023-02-12T17:35:44;10.90;99.90
26537;DHT22;14204;51.262;5.488;2023-02-12T17:38:09;10.90;99.90
26537;DHT22;14204;51.262;5.488;2023-02-12T17:40:36;10.90;99.90
26537;DHT22;14204;51.262;5.488;2023-02-12T17:43:06;10.80;99.90
26537;DHT22;14204;51.262;5.488;2023-02-12T17:45:31;10.90;99.90
26537;DHT22;14204;51.262;5.488;2023-02-12T17:47:57;10.80;99.90
26537;DHT22;14204;51.262;5.488;2023-02-12T17:50:23;10.80;99.90
26537;DHT22;14204;51.262;5.488;2023-02-12T17:52:49;10.80;99.90
26537;DHT22;14204;51.262;5.488;2023-02-12T17:55:15;10.80;99.90
26537;DHT22;14204;51.262;5.488;2023-02-12T17:57:42;10.80;99.90
26537;DHT22;14204;51.262;5.488;2023-02-12T18:00:10;10.80;99.90
26537;DHT22;14204;51.262;5.488;2023-02-12T18:02:37;10.80;99.90
26537;DHT22;14204;51.262;5.488;2023-02-12T18:05:03;10.80;99.90
26537;DHT22;14204;51.262;5.488;2023-02-12T18:07:32;10.70;99.90
26537;DHT22;14204;51.262;5.488;2023-02-12T18:09:57;10.70;99.90
26537;DHT22;14204;51.262;5.488;2023-02-12T18:12:23;10.70;99.90
26537;DHT22;14204;51.262;5.488;2023-02-12T18:14:49;10.70;99.90
26537;DHT22;14204;51.262;5.488;2023-02-12T18:17:14;10.70;99.90
26537;DHT22;14204;51.262;5.488;2023-02-12T18:19:40;10.70;99.90
26537;DHT22;14204;51.262;5.488;2023-02-12T18:22:05;10.70;99.90
26537;DHT22;14204;51.262;5.488;2023-02-12T18:24:31;10.70;99.90
26537;DHT22;14204;51.262;5.488;2023-02-12T18:26:59;10.70;99.90
26537;DHT22;14204;51.262;5.488;2023-02-12T18:29:25;10.70;99.90
26537;DHT22;14204;51.262;5.488;2023-02-12T18:31:52;10.70;99.90
26537;DHT22;14204;51.262;5.488;2023-02-12T18:34:18;10.70;99.90